sensor_id;sensor_type;location;lat;lon;timestamp;pressure;altitude;pressure_sealevel;temperature;humidity
20160;BME280;50187;50.492;12.134;2023-04-28T00:01:14;97642.25;;;19.84;32.54
20160;BME280;50187;50.492;12.134;2023-04-28T00:03:41;97638.84;;;19.82;32.61
20160;BME280;50187;50.492;12.134;2023-04-28T00:06:08;97634.91;;;19.77;32.54
20160;BME280;50187;50.492;12.134;2023-04-28T00:08:36;97641.41;;;19.84;32.60
20160;BME280;50187;50.492;12.134;2023-04-28T00:11:03;97635.16;;;19.83;32.61
20160;BME280;50187;50.492;12.134;2023-04-28T00:13:29;97628.06;;;19.82;32.80
20160;BME280;50187;50.492;12.134;2023-04-28T00:15:56;97626.22;;;19.83;32.74
20160;BME280;50187;50.492;12.134;2023-04-28T00:18:22;97625.19;;;19.84;32.77
20160;BME280;50187;50.492;12.134;2023-04-28T00:20:49;97627.91;;;19.84;32.73
20160;BME280;50187;50.492;12.134;2023-04-28T00:23:15;97621.81;;;19.82;32.82
20160;BME280;50187;50.492;12.134;2023-04-28T00:25:42;97622.50;;;19.84;32.76
20160;BME280;50187;50.492;12.134;2023-04-28T00:28:08;97609.50;;;19.79;32.56
20160;BME280;50187;50.492;12.134;2023-04-28T00:30:35;97608.16;;;19.83;32.64
20160;BME280;50187;50.492;12.134;2023-04-28T00:33:01;97612.72;;;19.83;32.75
20160;BME280;50187;50.492;12.134;2023-04-28T00:35:28;97604.94;;;19.80;32.71
20160;BME280;50187;50.492;12.134;2023-04-28T00:37:54;97601.41;;;19.79;32.77
20160;BME280;50187;50.492;12.134;2023-04-28T00:40:21;97605.78;;;19.80;32.78
20160;BME280;50187;50.492;12.134;2023-04-28T00:42:48;97599.25;;;19.83;32.91
20160;BME280;50187;50.492;12.134;2023-04-28T00:45:16;97603.78;;;19.82;32.81
20160;BME280;50187;50.492;12.134;2023-04-28T00:47:42;97597.38;;;19.83;32.97
20160;BME280;50187;50.492;12.134;2023-04-28T00:50:09;97596.69;;;19.81;32.70
20160;BME280;50187;50.492;12.134;2023-04-28T00:52:37;97603.78;;;19.82;32.75
20160;BME280;50187;50.492;12.134;2023-04-28T00:55:06;97591.44;;;19.80;32.58
20160;BME280;50187;50.492;12.134;2023-04-28T00:57:33;97588.59;;;19.81;32.86
20160;BME280;50187;50.492;12.134;2023-04-28T00:59:59;97589.91;;;19.77;32.71
20160;BME280;50187;50.492;12.134;2023-04-28T01:02:27;97588.59;;;19.81;32.73
20160;BME280;50187;50.492;12.134;2023-04-28T01:04:56;97582.34;;;19.81;32.77
20160;BME280;50187;50.492;12.134;2023-04-28T01:07:24;97568.69;;;19.82;33.01
20160;BME280;50187;50.492;12.134;2023-04-28T01:09:51;97570.53;;;19.82;32.71
20160;BME280;50187;50.492;12.134;2023-04-28T01:12:22;97571.38;;;19.82;32.80
20160;BME280;50187;50.492;12.134;2023-04-28T01:14:51;97570.38;;;19.83;32.96
20160;BME280;50187;50.492;12.134;2023-04-28T01:17:18;97574.06;;;19.82;32.77
20160;BME280;50187;50.492;12.134;2023-04-28T01:19:45;97575.78;;;19.83;32.90
20160;BME280;50187;50.492;12.134;2023-04-28T01:22:12;97570.53;;;19.82;32.87
20160;BME280;50187;50.492;12.134;2023-04-28T01:24:42;97573.25;;;19.82;32.97
20160;BME280;50187;50.492;12.134;2023-04-28T01:27:11;97563.44;;;19.81;32.93
20160;BME280;50187;50.492;12.134;2023-04-28T01:29:40;97568.84;;;19.81;32.77
20160;BME280;50187;50.492;12.134;2023-04-28T01:32:07;97559.19;;;19.78;32.85
20160;BME280;50187;50.492;12.134;2023-04-28T01:34:33;97569.13;;;19.78;32.99
20160;BME280;50187;50.492;12.134;2023-04-28T01:37:00;97551.41;;;19.75;32.81
20160;BME280;50187;50.492;12.134;2023-04-28T01:39:27;97553.09;;;19.76;32.93
20160;BME280;50187;50.492;12.134;2023-04-28T01:41:54;97559.34;;;19.77;32.96
20160;BME280;50187;50.492;12.134;2023-04-28T01:44:21;97553.94;;;19.77;33.08
20160;BME280;50187;50.492;12.134;2023-04-28T01:46:47;97547.53;;;19.78;33.02
20160;BME280;50187;50.492;12.134;2023-04-28T01:49:14;97553.94;;;19.77;33.10
20160;BME280;50187;50.492;12.134;2023-04-28T01:51:40;97543.63;;;19.72;33.08
20160;BME280;50187;50.492;12.134;2023-04-28T01:54:08;97545.34;;;19.73;33.02
20160;BME280;50187;50.492;12.134;2023-04-28T01:56:35;97547.88;;;19.74;33.05
20160;BME280;50187;50.492;12.134;2023-04-28T01:59:02;97543.47;;;19.73;33.08
20160;BME280;50187;50.492;12.134;2023-04-28T02:01:29;97546.34;;;19.72;32.94
20160;BME280;50187;50.492;12.134;2023-04-28T02:03:56;97539.22;;;19.71;33.27
20160;BME280;50187;50.492;12.134;2023-04-28T02:06:23;97544.63;;;19.71;32.99
20160;BME280;50187;50.492;12.134;2023-04-28T02:08:49;97545.66;;;19.70;32.95
20160;BME280;50187;50.492;12.134;2023-04-28T02:11:16;97540.94;;;19.72;33.27
20160;BME280;50187;50.492;12.134;2023-04-28T02:13:42;97534.53;;;19.73;32.97
20160;BME280;50187;50.492;12.134;2023-04-28T02:16:09;97531.84;;;19.73;32.96
20160;BME280;50187;50.492;12.134;2023-04-28T02:18:35;97527.44;;;19.72;33.02
20160;BME280;50187;50.492;12.134;2023-04-28T02:21:09;97527.44;;;19.72;32.93
20160;BME280;50187;50.492;12.134;2023-04-28T02:23:37;97537.56;;;19.70;32.90
20160;BME280;50187;50.492;12.134;2023-04-28T02:26:04;97525.41;;;19.66;33.09
20160;BME280;50187;50.492;12.134;2023-04-28T02:28:31;97526.91;;;19.68;33.20
20160;BME280;50187;50.492;12.134;2023-04-28T02:31:09;97535.16;;;19.67;33.11
20160;BME280;50187;50.492;12.134;2023-04-28T02:33:36;97531.31;;;19.69;33.19
20160;BME280;50187;50.492;12.134;2023-04-28T02:36:04;97534.88;;;19.70;33.11
20160;BME280;50187;50.492;12.134;2023-04-28T02:38:31;97526.59;;;19.71;33.03
20160;BME280;50187;50.492;12.134;2023-04-28T02:41:05;97524.06;;;19.70;33.18
20160;BME280;50187;50.492;12.134;2023-04-28T02:43:32;97515.97;;;19.70;33.24
20160;BME280;50187;50.492;12.134;2023-04-28T02:46:00;97516.81;;;19.70;32.97
20160;BME280;50187;50.492;12.134;2023-04-28T02:48:27;97519.69;;;19.69;33.11
20160;BME280;50187;50.492;12.134;2023-04-28T02:50:54;97514.28;;;19.69;33.09
20160;BME280;50187;50.492;12.134;2023-04-28T02:53:21;97513.56;;;19.67;33.41
20160;BME280;50187;50.492;12.134;2023-04-28T02:55:48;97507.19;;;19.68;33.10
20160;BME280;50187;50.492;12.134;2023-04-28T02:58:15;97503.47;;;19.69;33.20
20160;BME280;50187;50.492;12.134;2023-04-28T03:00:43;97502.50;;;19.70;33.15
20160;BME280;50187;50.492;12.134;2023-04-28T03:03:10;97507.88;;;19.70;33.06
20160;BME280;50187;50.492;12.134;2023-04-28T03:05:37;97497.94;;;19.70;33.35
20160;BME280;50187;50.492;12.134;2023-04-28T03:08:04;97490.63;;;19.63;33.18
20160;BME280;50187;50.492;12.134;2023-04-28T03:10:31;97493.34;;;19.71;33.38
20160;BME280;50187;50.492;12.134;2023-04-28T03:12:59;97480.53;;;19.65;33.03
20160;BME280;50187;50.492;12.134;2023-04-28T03:15:25;97480.03;;;19.69;33.06
20160;BME280;50187;50.492;12.134;2023-04-28T03:17:52;97486.44;;;19.68;33.06
20160;BME280;50187;50.492;12.134;2023-04-28T03:20:19;97481.91;;;19.69;33.38
20160;BME280;50187;50.492;12.134;2023-04-28T03:22:45;97480.03;;;19.69;33.37
20160;BME280;50187;50.492;12.134;2023-04-28T03:25:12;97485.44;;;19.69;33.39
20160;BME280;50187;50.492;12.134;2023-04-28T03:27:46;97487.97;;;19.71;33.36
20160;BME280;50187;50.492;12.134;2023-04-28T03:30:13;97497.38;;;19.67;33.23
20160;BME280;50187;50.492;12.134;2023-04-28T03:32:39;97489.00;;;19.70;33.21
20160;BME280;50187;50.492;12.134;2023-04-28T03:35:07;97484.44;;;19.70;33.36
20160;BME280;50187;50.492;12.134;2023-04-28T03:37:33;97486.28;;;19.70;33.18
20160;BME280;50187;50.492;12.134;2023-04-28T03:40:00;97478.19;;;19.70;33.33
20160;BME280;50187;50.492;12.134;2023-04-28T03:42:30;97472.09;;;19.68;33.41
20160;BME280;50187;50.492;12.134;2023-04-28T03:45:07;97471.09;;;19.69;33.45
20160;BME280;50187;50.492;12.134;2023-04-28T03:47:34;97470.09;;;19.70;33.19
20160;BME280;50187;50.492;12.134;2023-04-28T03:50:02;97465.16;;;19.65;33.26
20160;BME280;50187;50.492;12.134;2023-04-28T03:52:29;97460.31;;;19.69;33.42
20160;BME280;50187;50.492;12.134;2023-04-28T03:54:56;97464.00;;;19.68;33.46
20160;BME280;50187;50.492;12.134;2023-04-28T03:57:22;97459.44;;;19.68;33.29
20160;BME280;50187;50.492;12.134;2023-04-28T03:59:49;97451.34;;;19.68;33.23
20160;BME280;50187;50.492;12.134;2023-04-28T04:02:16;97460.31;;;19.69;33.35
20160;BME280;50187;50.492;12.134;2023-04-28T04:04:43;97471.09;;;19.69;33.35
20160;BME280;50187;50.492;12.134;2023-04-28T04:07:10;97458.94;;;19.65;33.30
20160;BME280;50187;50.492;12.134;2023-04-28T04:09:37;97456.06;;;19.66;33.32
20160;BME280;50187;50.492;12.134;2023-04-28T04:12:04;97452.38;;;19.67;33.17
20160;BME280;50187;50.492;12.134;2023-04-28T04:14:31;97439.34;;;19.63;33.17
20160;BME280;50187;50.492;12.134;2023-04-28T04:16:58;97442.41;;;19.68;33.55
20160;BME280;50187;50.492;12.134;2023-04-28T04:19:25;97442.41;;;19.68;33.29
20160;BME280;50187;50.492;12.134;2023-04-28T04:21:53;97438.72;;;19.69;33.18
20160;BME280;50187;50.492;12.134;2023-04-28T04:24:19;97439.38;;;19.71;33.39
20160;BME280;50187;50.492;12.134;2023-04-28T04:26:46;97440.41;;;19.70;33.47
20160;BME280;50187;50.492;12.134;2023-04-28T04:29:35;97433.50;;;19.67;33.27
20160;BME280;50187;50.492;12.134;2023-04-28T04:32:07;97435.16;;;19.68;33.35
20160;BME280;50187;50.492;12.134;2023-04-28T04:34:34;97437.03;;;19.68;33.43
20160;BME280;50187;50.492;12.134;2023-04-28T04:37:00;97434.50;;;19.66;33.40
20160;BME280;50187;50.492;12.134;2023-04-28T04:39:28;97433.66;;;19.66;33.25
20160;BME280;50187;50.492;12.134;2023-04-28T04:41:54;97437.03;;;19.68;33.23
20160;BME280;50187;50.492;12.134;2023-04-28T04:44:39;97440.41;;;19.70;33.36
20160;BME280;50187;50.492;12.134;2023-04-28T04:47:10;97438.38;;;19.72;33.26
20160;BME280;50187;50.492;12.134;2023-04-28T04:49:37;97432.00;;;19.73;33.18
20160;BME280;50187;50.492;12.134;2023-04-28T04:52:04;97420.50;;;19.71;33.34
20160;BME280;50187;50.492;12.134;2023-04-28T04:54:32;97424.72;;;19.73;33.19
20160;BME280;50187;50.492;12.134;2023-04-28T04:56:58;97420.34;;;19.72;33.23
20160;BME280;50187;50.492;12.134;2023-04-28T04:59:45;97421.38;;;19.71;33.42
20160;BME280;50187;50.492;12.134;2023-04-28T05:02:15;97421.69;;;19.77;33.17
20160;BME280;50187;50.492;12.134;2023-04-28T05:04:43;97414.16;;;19.80;33.26
20160;BME280;50187;50.492;12.134;2023-04-28T05:07:11;97419.91;;;19.85;33.00
20160;BME280;50187;50.492;12.134;2023-04-28T05:09:39;97422.63;;;19.94;33.08
20160;BME280;50187;50.492;12.134;2023-04-28T05:12:05;97422.97;;;19.99;33.08
20160;BME280;50187;50.492;12.134;2023-04-28T05:14:32;97415.53;;;20.01;32.84
20160;BME280;50187;50.492;12.134;2023-04-28T05:16:59;97423.34;;;20.04;33.18
20160;BME280;50187;50.492;12.134;2023-04-28T05:19:32;97420.31;;;20.07;32.89
20160;BME280;50187;50.492;12.134;2023-04-28T05:21:58;97419.97;;;20.10;32.78
20160;BME280;50187;50.492;12.134;2023-04-28T05:24:26;97404.78;;;20.09;32.84
20160;BME280;50187;50.492;12.134;2023-04-28T05:26:53;97409.50;;;20.07;32.95
20160;BME280;50187;50.492;12.134;2023-04-28T05:29:20;97406.13;;;20.13;32.94
20160;BME280;50187;50.492;12.134;2023-04-28T05:31:47;97403.09;;;20.16;32.70
20160;BME280;50187;50.492;12.134;2023-04-28T05:34:14;97407.31;;;20.19;32.55
20160;BME280;50187;50.492;12.134;2023-04-28T05:36:43;97403.09;;;20.16;32.60
20160;BME280;50187;50.492;12.134;2023-04-28T05:39:11;97402.44;;;20.22;32.68
20160;BME280;50187;50.492;12.134;2023-04-28T05:41:39;97399.03;;;20.20;32.73
20160;BME280;50187;50.492;12.134;2023-04-28T05:44:06;97403.44;;;20.21;32.77
20160;BME280;50187;50.492;12.134;2023-04-28T05:46:32;97404.44;;;20.20;32.83
20160;BME280;50187;50.492;12.134;2023-04-28T05:48:59;97409.69;;;20.22;32.62
20160;BME280;50187;50.492;12.134;2023-04-28T05:51:31;97399.03;;;20.20;32.83
20160;BME280;50187;50.492;12.134;2023-04-28T05:53:59;97410.22;;;20.25;32.78
20160;BME280;50187;50.492;12.134;2023-04-28T05:56:27;97404.81;;;20.25;32.57
20160;BME280;50187;50.492;12.134;2023-04-28T05:58:55;97398.41;;;20.27;32.46
20160;BME280;50187;50.492;12.134;2023-04-28T06:01:24;97405.81;;;20.24;32.78
20160;BME280;50187;50.492;12.134;2023-04-28T06:03:50;97406.66;;;20.25;32.83
20160;BME280;50187;50.492;12.134;2023-04-28T06:06:19;97392.97;;;20.18;32.68
20160;BME280;50187;50.492;12.134;2023-04-28T06:08:47;97402.09;;;20.25;32.58
20160;BME280;50187;50.492;12.134;2023-04-28T06:11:13;97404.63;;;20.27;32.76
20160;BME280;50187;50.492;12.134;2023-04-28T06:13:40;97390.28;;;20.27;32.59
20160;BME280;50187;50.492;12.134;2023-04-28T06:16:06;97399.41;;;20.25;32.64
20160;BME280;50187;50.492;12.134;2023-04-28T06:18:33;97403.09;;;20.24;32.64
20160;BME280;50187;50.492;12.134;2023-04-28T06:21:01;97387.91;;;20.15;32.58
20160;BME280;50187;50.492;12.134;2023-04-28T06:23:28;97408.50;;;20.24;32.55
20160;BME280;50187;50.492;12.134;2023-04-28T06:25:54;97423.72;;;20.25;32.64
20160;BME280;50187;50.492;12.134;2023-04-28T06:28:21;97395.69;;;20.27;32.88
20160;BME280;50187;50.492;12.134;2023-04-28T06:30:47;97395.88;;;20.25;32.60
20160;BME280;50187;50.492;12.134;2023-04-28T06:33:14;97384.19;;;20.24;32.85
20160;BME280;50187;50.492;12.134;2023-04-28T06:35:40;97390.63;;;20.23;32.59
20160;BME280;50187;50.492;12.134;2023-04-28T06:38:07;97401.75;;;20.20;32.66
20160;BME280;50187;50.492;12.134;2023-04-28T06:40:35;97394.69;;;20.19;32.95
20160;BME280;50187;50.492;12.134;2023-04-28T06:43:05;97391.63;;;20.22;32.95
20160;BME280;50187;50.492;12.134;2023-04-28T06:45:40;97392.13;;;20.26;32.87
20160;BME280;50187;50.492;12.134;2023-04-28T06:48:07;97400.94;;;20.28;32.81
20160;BME280;50187;50.492;12.134;2023-04-28T06:50:37;97393.81;;;20.27;32.71
20160;BME280;50187;50.492;12.134;2023-04-28T06:53:05;97396.53;;;20.27;32.78
20160;BME280;50187;50.492;12.134;2023-04-28T06:55:33;97392.81;;;20.28;32.88
20160;BME280;50187;50.492;12.134;2023-04-28T06:58:00;97377.59;;;20.19;32.55
20160;BME280;50187;50.492;12.134;2023-04-28T07:00:26;97384.03;;;20.26;32.85
20160;BME280;50187;50.492;12.134;2023-04-28T07:02:53;97392.47;;;20.23;32.77
20160;BME280;50187;50.492;12.134;2023-04-28T07:05:20;97389.09;;;20.21;32.95
20160;BME280;50187;50.492;12.134;2023-04-28T07:07:46;97387.25;;;20.21;32.94
20160;BME280;50187;50.492;12.134;2023-04-28T07:10:13;97385.06;;;20.25;32.81
20160;BME280;50187;50.492;12.134;2023-04-28T07:12:41;97369.69;;;20.25;32.78
20160;BME280;50187;50.492;12.134;2023-04-28T07:15:07;97391.13;;;20.27;33.03
20160;BME280;50187;50.492;12.134;2023-04-28T07:17:35;97376.78;;;20.27;32.92
20160;BME280;50187;50.492;12.134;2023-04-28T07:20:02;97382.53;;;20.23;32.84
20160;BME280;50187;50.492;12.134;2023-04-28T07:22:30;97379.13;;;20.21;32.92
20160;BME280;50187;50.492;12.134;2023-04-28T07:24:56;97386.91;;;20.24;32.96
20160;BME280;50187;50.492;12.134;2023-04-28T07:27:23;97391.28;;;20.25;32.94
20160;BME280;50187;50.492;12.134;2023-04-28T07:29:49;97389.25;;;20.28;32.74
20160;BME280;50187;50.492;12.134;2023-04-28T07:32:16;97387.75;;;20.25;33.07
20160;BME280;50187;50.492;12.134;2023-04-28T07:34:43;97395.16;;;20.23;33.12
20160;BME280;50187;50.492;12.134;2023-04-28T07:37:09;97397.53;;;20.26;33.05
20160;BME280;50187;50.492;12.134;2023-04-28T07:39:37;97390.97;;;20.29;32.81
20160;BME280;50187;50.492;12.134;2023-04-28T07:42:05;97398.41;;;20.27;32.83
20160;BME280;50187;50.492;12.134;2023-04-28T07:44:32;97394.00;;;20.25;32.82
20160;BME280;50187;50.492;12.134;2023-04-28T07:46:59;97412.25;;;20.23;33.15
20160;BME280;50187;50.492;12.134;2023-04-28T07:49:27;97393.34;;;20.23;33.10
20160;BME280;50187;50.492;12.134;2023-04-28T07:51:54;97389.09;;;20.21;33.11
20160;BME280;50187;50.492;12.134;2023-04-28T07:54:21;97382.66;;;20.22;32.96
20160;BME280;50187;50.492;12.134;2023-04-28T07:56:48;97386.56;;;20.28;32.84
20160;BME280;50187;50.492;12.134;2023-04-28T07:59:15;97379.13;;;20.21;32.91
20160;BME280;50187;50.492;12.134;2023-04-28T08:01:41;97385.91;;;20.25;32.99
20160;BME280;50187;50.492;12.134;2023-04-28T08:04:08;97385.72;;;20.27;32.92
20160;BME280;50187;50.492;12.134;2023-04-28T08:06:35;97389.59;;;20.24;33.13
20160;BME280;50187;50.492;12.134;2023-04-28T08:09:02;97394.84;;;20.26;33.20
20160;BME280;50187;50.492;12.134;2023-04-28T08:11:33;97381.66;;;20.23;33.13
20160;BME280;50187;50.492;12.134;2023-04-28T08:14:00;97370.22;;;20.21;33.20
20160;BME280;50187;50.492;12.134;2023-04-28T08:16:29;97370.03;;;20.22;33.33
20160;BME280;50187;50.492;12.134;2023-04-28T08:18:57;97372.56;;;20.24;33.20
20160;BME280;50187;50.492;12.134;2023-04-28T08:21:25;97376.78;;;20.27;32.92
20160;BME280;50187;50.492;12.134;2023-04-28T08:23:52;97380.16;;;20.29;32.97
20160;BME280;50187;50.492;12.134;2023-04-28T08:26:18;97388.44;;;20.27;33.18
20160;BME280;50187;50.492;12.134;2023-04-28T08:28:45;97387.44;;;20.28;33.15
20160;BME280;50187;50.492;12.134;2023-04-28T08:31:11;97392.13;;;20.26;33.17
20160;BME280;50187;50.492;12.134;2023-04-28T08:33:38;97389.59;;;20.24;33.13
20160;BME280;50187;50.492;12.134;2023-04-28T08:36:05;97387.06;;;20.23;33.32
20160;BME280;50187;50.492;12.134;2023-04-28T08:38:31;97395.69;;;20.27;33.05
20160;BME280;50187;50.492;12.134;2023-04-28T08:40:58;97390.13;;;20.28;32.97
20160;BME280;50187;50.492;12.134;2023-04-28T08:43:24;97401.75;;;20.29;33.20
20160;BME280;50187;50.492;12.134;2023-04-28T08:45:51;97400.06;;;20.28;33.08
20160;BME280;50187;50.492;12.134;2023-04-28T08:48:19;97394.84;;;20.26;33.11
20160;BME280;50187;50.492;12.134;2023-04-28T08:50:51;97414.94;;;20.23;33.29
20160;BME280;50187;50.492;12.134;2023-04-28T08:53:25;97398.75;;;20.23;33.34
20160;BME280;50187;50.492;12.134;2023-04-28T08:55:56;97409.19;;;20.27;33.33
20160;BME280;50187;50.492;12.134;2023-04-28T08:58:26;97396.53;;;20.27;33.39
20160;BME280;50187;50.492;12.134;2023-04-28T09:00:53;97397.38;;;20.28;33.46
20160;BME280;50187;50.492;12.134;2023-04-28T09:03:20;97396.19;;;20.30;33.53
20160;BME280;50187;50.492;12.134;2023-04-28T09:05:47;97392.66;;;20.30;33.56
20160;BME280;50187;50.492;12.134;2023-04-28T09:08:14;97392.47;;;20.31;33.43
20160;BME280;50187;50.492;12.134;2023-04-28T09:10:41;97398.06;;;20.30;33.45
20160;BME280;50187;50.492;12.134;2023-04-28T09:13:07;97387.59;;;20.27;33.57
20160;BME280;50187;50.492;12.134;2023-04-28T09:15:38;97391.47;;;20.24;33.52
20160;BME280;50187;50.492;12.134;2023-04-28T09:18:13;97393.00;;;20.27;33.52
20160;BME280;50187;50.492;12.134;2023-04-28T09:20:40;97391.66;;;20.31;33.47
20160;BME280;50187;50.492;12.134;2023-04-28T09:23:20;97396.19;;;20.30;33.53
20160;BME280;50187;50.492;12.134;2023-04-28T09:26:01;97390.63;;;20.32;33.30
20160;BME280;50187;50.492;12.134;2023-04-28T09:28:29;97389.78;;;20.31;33.33
20160;BME280;50187;50.492;12.134;2023-04-28T09:30:56;97383.72;;;20.29;33.54
20160;BME280;50187;50.492;12.134;2023-04-28T09:33:23;97380.50;;;20.25;33.56
20160;BME280;50187;50.492;12.134;2023-04-28T09:35:50;97387.94;;;20.23;33.64
20160;BME280;50187;50.492;12.134;2023-04-28T09:38:18;97378.47;;;20.28;33.39
20160;BME280;50187;50.492;12.134;2023-04-28T09:40:49;97376.44;;;20.30;33.31
20160;BME280;50187;50.492;12.134;2023-04-28T09:43:25;97368.69;;;20.27;33.52
20160;BME280;50187;50.492;12.134;2023-04-28T09:45:52;97372.91;;;20.29;33.59
20160;BME280;50187;50.492;12.134;2023-04-28T09:48:26;97372.41;;;20.25;33.41
20160;BME280;50187;50.492;12.134;2023-04-28T09:50:53;97387.94;;;20.23;33.69
20160;BME280;50187;50.492;12.134;2023-04-28T09:53:26;97380.31;;;20.27;33.62
20160;BME280;50187;50.492;12.134;2023-04-28T09:55:54;97376.44;;;20.30;33.42
20160;BME280;50187;50.492;12.134;2023-04-28T09:58:23;97372.06;;;20.29;33.48
20160;BME280;50187;50.492;12.134;2023-04-28T10:00:52;97374.75;;;20.29;33.62
20160;BME280;50187;50.492;12.134;2023-04-28T10:03:27;97380.31;;;20.27;33.39
20160;BME280;50187;50.492;12.134;2023-04-28T10:05:57;97376.09;;;20.24;33.43
20160;BME280;50187;50.492;12.134;2023-04-28T10:08:25;97364.63;;;20.22;33.56
20160;BME280;50187;50.492;12.134;2023-04-28T10:10:52;97372.22;;;20.27;33.54
20160;BME280;50187;50.492;12.134;2023-04-28T10:13:21;97370.03;;;20.31;33.61
20160;BME280;50187;50.492;12.134;2023-04-28T10:15:49;97355.50;;;20.32;33.58
20160;BME280;50187;50.492;12.134;2023-04-28T10:18:16;97352.81;;;20.32;33.51
20160;BME280;50187;50.492;12.134;2023-04-28T10:20:56;97339.47;;;20.30;33.33
20160;BME280;50187;50.492;12.134;2023-04-28T10:26:56;97295.59;;;20.28;33.64
20160;BME280;50187;50.492;12.134;2023-04-28T10:29:29;97273.63;;;20.23;33.68
20160;BME280;50187;50.492;12.134;2023-04-28T10:32:18;97251.03;;;20.24;33.69
20160;BME280;50187;50.492;12.134;2023-04-28T10:34:46;97241.22;;;20.23;33.89
20160;BME280;50187;50.492;12.134;2023-04-28T10:37:13;97247.16;;;20.27;33.65
20160;BME280;50187;50.492;12.134;2023-04-28T10:39:40;97255.91;;;20.29;33.76
20160;BME280;50187;50.492;12.134;2023-04-28T11:06:24;97315.31;;;20.29;33.83
20160;BME280;50187;50.492;12.134;2023-04-28T11:08:55;97321.75;;;20.28;33.64
20160;BME280;50187;50.492;12.134;2023-04-28T11:11:32;97317.53;;;20.25;33.62
20160;BME280;50187;50.492;12.134;2023-04-28T11:16:53;97305.22;;;20.22;33.76
20160;BME280;50187;50.492;12.134;2023-04-28T11:19:25;97294.25;;;20.16;33.83
20160;BME280;50187;50.492;12.134;2023-04-28T11:21:55;97298.47;;;20.27;33.75
20160;BME280;50187;50.492;12.134;2023-04-28T11:24:23;97296.78;;;20.25;33.66
20160;BME280;50187;50.492;12.134;2023-04-28T11:26:57;97307.91;;;20.31;33.58
20160;BME280;50187;50.492;12.134;2023-04-28T11:29:35;97299.81;;;20.31;33.69
20160;BME280;50187;50.492;12.134;2023-04-28T11:32:03;97294.41;;;20.31;33.65
20160;BME280;50187;50.492;12.134;2023-04-28T11:34:30;97291.72;;;20.31;33.67
20160;BME280;50187;50.492;12.134;2023-04-28T11:36:58;97292.72;;;20.30;33.81
20160;BME280;50187;50.492;12.134;2023-04-28T11:39:32;97292.03;;;20.28;33.68
20160;BME280;50187;50.492;12.134;2023-04-28T11:42:01;97289.50;;;20.26;33.93
20160;BME280;50187;50.492;12.134;2023-04-28T11:44:29;97294.72;;;20.28;33.75
20160;BME280;50187;50.492;12.134;2023-04-28T11:46:58;97288.31;;;20.29;33.76
20160;BME280;50187;50.492;12.134;2023-04-28T11:49:41;97284.63;;;20.30;33.78
20160;BME280;50187;50.492;12.134;2023-04-28T11:52:08;97277.50;;;20.29;33.87
20160;BME280;50187;50.492;12.134;2023-04-28T11:54:35;97279.22;;;20.30;33.78
20160;BME280;50187;50.492;12.134;2023-04-28T11:57:03;97267.72;;;20.28;34.02
20160;BME280;50187;50.492;12.134;2023-04-28T11:59:31;97268.75;;;20.27;33.78
20160;BME280;50187;50.492;12.134;2023-04-28T12:02:05;97270.41;;;20.28;33.96
20160;BME280;50187;50.492;12.134;2023-04-28T12:04:42;97266.72;;;20.29;34.00
20160;BME280;50187;50.492;12.134;2023-04-28T12:07:14;97266.38;;;20.32;33.86
20160;BME280;50187;50.492;12.134;2023-04-28T12:09:45;97258.94;;;20.34;33.69
20160;BME280;50187;50.492;12.134;2023-04-28T12:12:16;97262.66;;;20.33;33.82
20160;BME280;50187;50.492;12.134;2023-04-28T12:15:12;97247.28;;;20.33;33.79
20160;BME280;50187;50.492;12.134;2023-04-28T12:17:40;97251.19;;;20.31;34.00
20160;BME280;50187;50.492;12.134;2023-04-28T12:20:09;97251.50;;;20.28;33.99
20160;BME280;50187;50.492;12.134;2023-04-28T12:22:46;97246.81;;;20.30;33.86
20160;BME280;50187;50.492;12.134;2023-04-28T12:25:15;97256.59;;;20.31;34.01
20160;BME280;50187;50.492;12.134;2023-04-28T12:28:08;97241.41;;;20.30;33.92
20160;BME280;50187;50.492;12.134;2023-04-28T12:30:36;97246.63;;;20.31;34.05
20160;BME280;50187;50.492;12.134;2023-04-28T12:33:25;97243.94;;;20.31;34.01
20160;BME280;50187;50.492;12.134;2023-04-28T12:35:53;97241.06;;;20.33;33.86
20160;BME280;50187;50.492;12.134;2023-04-28T12:38:23;97237.19;;;20.27;33.84
20160;BME280;50187;50.492;12.134;2023-04-28T12:40:51;97237.19;;;20.27;33.96
20160;BME280;50187;50.492;12.134;2023-04-28T12:43:18;97234.31;;;20.29;33.93
20160;BME280;50187;50.492;12.134;2023-04-28T12:45:44;97230.41;;;20.31;34.10
20160;BME280;50187;50.492;12.134;2023-04-28T12:48:11;97223.16;;;20.32;34.03
20160;BME280;50187;50.492;12.134;2023-04-28T12:50:37;97225.84;;;20.32;33.90
20160;BME280;50187;50.492;12.134;2023-04-28T12:53:04;97228.56;;;20.32;33.95
20160;BME280;50187;50.492;12.134;2023-04-28T12:55:30;97224.00;;;20.32;34.11
20160;BME280;50187;50.492;12.134;2023-04-28T12:57:57;97223.16;;;20.32;34.14
20160;BME280;50187;50.492;12.134;2023-04-28T13:00:24;97221.47;;;20.31;33.91
20160;BME280;50187;50.492;12.134;2023-04-28T13:02:51;97221.16;;;20.25;34.01
20160;BME280;50187;50.492;12.134;2023-04-28T13:05:18;97236.16;;;20.28;34.09
20160;BME280;50187;50.492;12.134;2023-04-28T13:07:45;97227.22;;;20.28;34.16
20160;BME280;50187;50.492;12.134;2023-04-28T13:10:12;97224.50;;;20.28;34.23
20160;BME280;50187;50.492;12.134;2023-04-28T13:12:39;97214.75;;;20.27;34.06
20160;BME280;50187;50.492;12.134;2023-04-28T13:15:07;97198.03;;;20.23;34.13
20160;BME280;50187;50.492;12.134;2023-04-28T13:17:34;97201.06;;;20.28;33.98
20160;BME280;50187;50.492;12.134;2023-04-28T13:20:00;97200.38;;;20.26;34.33
20160;BME280;50187;50.492;12.134;2023-04-28T13:22:29;97210.16;;;20.27;34.29
20160;BME280;50187;50.492;12.134;2023-04-28T13:24:55;97184.69;;;20.21;34.24
20160;BME280;50187;50.492;12.134;2023-04-28T13:27:22;97184.69;;;20.21;34.12